sensor_id;sensor_type;location;lat;lon;timestamp;P1;durP1;ratioP1;P2;durP2;ratioP2
14799;SDS011;7491;57.750;11.970;2024-03-22T00:00:17;12.60;;;5.13;;
14799;SDS011;7491;57.750;11.970;2024-03-22T00:02:43;10.73;;;3.58;;
14799;SDS011;7491;57.750;11.970;2024-03-22T00:05:09;9.38;;;5.13;;
14799;SDS011;7491;57.750;11.970;2024-03-22T00:07:35;9.45;;;3.83;;
14799;SDS011;7491;57.750;11.970;2024-03-22T00:10:03;12.23;;;4.60;;
14799;SDS011;7491;57.750;11.970;2024-03-22T00:12:30;12.32;;;3.88;;
14799;SDS011;7491;57.750;11.970;2024-03-22T00:14:58;16.88;;;4.25;;
14799;SDS011;7491;57.750;11.970;2024-03-22T00:17:25;11.65;;;4.07;;
14799;SDS011;7491;57.750;11.970;2024-03-22T00:19:51;12.95;;;4.72;;
14799;SDS011;7491;57.750;11.970;2024-03-22T00:22:17;12.35;;;4.47;;
14799;SDS011;7491;57.750;11.970;2024-03-22T00:24:44;14.05;;;4.20;;
14799;SDS011;7491;57.750;11.970;2024-03-22T00:27:10;18.10;;;7.65;;
14799;SDS011;7491;57.750;11.970;2024-03-22T00:29:38;16.02;;;5.90;;
14799;SDS011;7491;57.750;11.970;2024-03-22T00:32:05;19.00;;;5.97;;
14799;SDS011;7491;57.750;11.970;2024-03-22T00:34:32;16.08;;;6.10;;
14799;SDS011;7491;57.750;11.970;2024-03-22T00:36:58;18.25;;;7.20;;
14799;SDS011;7491;57.750;11.970;2024-03-22T00:39:25;20.05;;;7.10;;
14799;SDS011;7491;57.750;11.970;2024-03-22T00:41:50;23.55;;;6.50;;
14799;SDS011;7491;57.750;11.970;2024-03-22T00:44:17;16.85;;;6.90;;
14799;SDS011;7491;57.750;11.970;2024-03-22T00:46:43;15.20;;;7.35;;
14799;SDS011;7491;57.750;11.970;2024-03-22T00:49:11;21.83;;;6.30;;
14799;SDS011;7491;57.750;11.970;2024-03-22T00:51:38;12.75;;;5.63;;
14799;SDS011;7491;57.750;11.970;2024-03-22T00:54:04;18.80;;;5.63;;
14799;SDS011;7491;57.750;11.970;2024-03-22T00:56:30;12.88;;;4.78;;
14799;SDS011;7491;57.750;11.970;2024-03-22T00:58:57;18.23;;;6.22;;
14799;SDS011;7491;57.750;11.970;2024-03-22T01:01:22;16.77;;;6.22;;
14799;SDS011;7491;57.750;11.970;2024-03-22T01:03:49;16.98;;;5.95;;
14799;SDS011;7491;57.750;11.970;2024-03-22T01:06:16;15.80;;;5.35;;
14799;SDS011;7491;57.750;11.970;2024-03-22T01:08:48;17.23;;;6.03;;
14799;SDS011;7491;57.750;11.970;2024-03-22T01:11:14;21.67;;;5.28;;
14799;SDS011;7491;57.750;11.970;2024-03-22T01:13:41;23.92;;;5.82;;
14799;SDS011;7491;57.750;11.970;2024-03-22T01:16:06;20.35;;;5.47;;
14799;SDS011;7491;57.750;11.970;2024-03-22T01:18:34;17.35;;;5.47;;
14799;SDS011;7491;57.750;11.970;2024-03-22T01:21:00;19.60;;;6.30;;
14799;SDS011;7491;57.750;11.970;2024-03-22T01:23:28;18.63;;;5.72;;
14799;SDS011;7491;57.750;11.970;2024-03-22T01:25:54;19.23;;;6.93;;
14799;SDS011;7491;57.750;11.970;2024-03-22T01:28:20;18.45;;;6.15;;
14799;SDS011;7491;57.750;11.970;2024-03-22T01:30:46;18.40;;;6.93;;
14799;SDS011;7491;57.750;11.970;2024-03-22T01:33:13;17.02;;;6.53;;
14799;SDS011;7491;57.750;11.970;2024-03-22T01:35:39;15.40;;;5.88;;
14799;SDS011;7491;57.750;11.970;2024-03-22T01:38:05;18.02;;;5.95;;
14799;SDS011;7491;57.750;11.970;2024-03-22T01:40:32;10.27;;;4.80;;
14799;SDS011;7491;57.750;11.970;2024-03-22T01:42:59;24.98;;;8.32;;
14799;SDS011;7491;57.750;11.970;2024-03-22T01:45:25;18.35;;;6.57;;
14799;SDS011;7491;57.750;11.970;2024-03-22T01:47:52;20.90;;;5.90;;
14799;SDS011;7491;57.750;11.970;2024-03-22T01:50:19;19.77;;;6.47;;
14799;SDS011;7491;57.750;11.970;2024-03-22T01:52:46;17.52;;;6.70;;
14799;SDS011;7491;57.750;11.970;2024-03-22T01:55:12;14.85;;;4.78;;
14799;SDS011;7491;57.750;11.970;2024-03-22T01:57:41;8.27;;;4.07;;
14799;SDS011;7491;57.750;11.970;2024-03-22T02:00:08;12.48;;;5.15;;
14799;SDS011;7491;57.750;11.970;2024-03-22T02:02:35;16.88;;;5.22;;
14799;SDS011;7491;57.750;11.970;2024-03-22T02:05:11;16.55;;;6.72;;
14799;SDS011;7491;57.750;11.970;2024-03-22T02:07:38;17.40;;;5.63;;
14799;SDS011;7491;57.750;11.970;2024-03-22T02:10:04;16.13;;;5.78;;
14799;SDS011;7491;57.750;11.970;2024-03-22T02:12:32;13.35;;;5.15;;
14799;SDS011;7491;57.750;11.970;2024-03-22T02:15:00;17.58;;;6.57;;
14799;SDS011;7491;57.750;11.970;2024-03-22T02:17:28;14.98;;;5.78;;
14799;SDS011;7491;57.750;11.970;2024-03-22T02:19:55;17.80;;;6.40;;
14799;SDS011;7491;57.750;11.970;2024-03-22T02:22:22;24.23;;;9.48;;
14799;SDS011;7491;57.750;11.970;2024-03-22T02:24:49;9.45;;;5.68;;
14799;SDS011;7491;57.750;11.970;2024-03-22T02:27:16;17.73;;;6.78;;
14799;SDS011;7491;57.750;11.970;2024-03-22T02:29:41;14.38;;;6.35;;
14799;SDS011;7491;57.750;11.970;2024-03-22T02:32:09;21.23;;;6.40;;
14799;SDS011;7491;57.750;11.970;2024-03-22T02:34:34;20.70;;;6.13;;
14799;SDS011;7491;57.750;11.970;2024-03-22T02:37:01;18.42;;;7.10;;
14799;SDS011;7491;57.750;11.970;2024-03-22T02:39:27;25.95;;;8.93;;
14799;SDS011;7491;57.750;11.970;2024-03-22T02:41:56;24.27;;;8.23;;
14799;SDS011;7491;57.750;11.970;2024-03-22T02:44:21;24.00;;;9.70;;
14799;SDS011;7491;57.750;11.970;2024-03-22T02:46:48;15.68;;;7.50;;
14799;SDS011;7491;57.750;11.970;2024-03-22T02:49:14;16.40;;;7.35;;
14799;SDS011;7491;57.750;11.970;2024-03-22T02:51:41;24.40;;;8.73;;
14799;SDS011;7491;57.750;11.970;2024-03-22T02:54:06;26.33;;;8.90;;
14799;SDS011;7491;57.750;11.970;2024-03-22T02:56:33;22.35;;;8.32;;
14799;SDS011;7491;57.750;11.970;2024-03-22T02:59:00;22.98;;;8.75;;
14799;SDS011;7491;57.750;11.970;2024-03-22T03:01:27;19.00;;;8.40;;
14799;SDS011;7491;57.750;11.970;2024-03-22T03:03:52;18.90;;;9.20;;
14799;SDS011;7491;57.750;11.970;2024-03-22T03:06:19;25.52;;;9.00;;
14799;SDS011;7491;57.750;11.970;2024-03-22T03:08:45;23.88;;;9.27;;
14799;SDS011;7491;57.750;11.970;2024-03-22T03:11:12;28.10;;;9.02;;
14799;SDS011;7491;57.750;11.970;2024-03-22T03:13:40;19.17;;;9.52;;
14799;SDS011;7491;57.750;11.970;2024-03-22T03:16:08;20.58;;;9.82;;
14799;SDS011;7491;57.750;11.970;2024-03-22T03:18:33;18.35;;;8.48;;
14799;SDS011;7491;57.750;11.970;2024-03-22T03:21:00;26.88;;;9.00;;
14799;SDS011;7491;57.750;11.970;2024-03-22T03:23:26;30.58;;;9.23;;
14799;SDS011;7491;57.750;11.970;2024-03-22T03:25:52;20.88;;;9.68;;
14799;SDS011;7491;57.750;11.970;2024-03-22T03:28:18;27.85;;;9.40;;
14799;SDS011;7491;57.750;11.970;2024-03-22T03:30:45;21.60;;;9.15;;
14799;SDS011;7491;57.750;11.970;2024-03-22T03:33:12;29.27;;;9.57;;
14799;SDS011;7491;57.750;11.970;2024-03-22T03:35:38;23.40;;;10.77;;
14799;SDS011;7491;57.750;11.970;2024-03-22T03:38:04;17.85;;;8.45;;
14799;SDS011;7491;57.750;11.970;2024-03-22T03:40:31;19.98;;;9.70;;
14799;SDS011;7491;57.750;11.970;2024-03-22T03:42:56;21.25;;;9.73;;
14799;SDS011;7491;57.750;11.970;2024-03-22T03:45:23;27.55;;;13.48;;
14799;SDS011;7491;57.750;11.970;2024-03-22T03:47:49;22.90;;;9.77;;
14799;SDS011;7491;57.750;11.970;2024-03-22T03:50:17;26.05;;;10.02;;
14799;SDS011;7491;57.750;11.970;2024-03-22T03:52:43;31.40;;;10.35;;
14799;SDS011;7491;57.750;11.970;2024-03-22T03:55:09;20.98;;;9.38;;
14799;SDS011;7491;57.750;11.970;2024-03-22T03:57:35;25.05;;;11.45;;
14799;SDS011;7491;57.750;11.970;2024-03-22T04:00:02;26.90;;;13.63;;
14799;SDS011;7491;57.750;11.970;2024-03-22T04:02:28;30.58;;;11.70;;
14799;SDS011;7491;57.750;11.970;2024-03-22T04:04:54;27.15;;;11.43;;
14799;SDS011;7491;57.750;11.970;2024-03-22T04:07:22;24.33;;;11.45;;
14799;SDS011;7491;57.750;11.970;2024-03-22T04:09:48;19.38;;;9.93;;
14799;SDS011;7491;57.750;11.970;2024-03-22T04:12:14;25.08;;;9.27;;
14799;SDS011;7491;57.750;11.970;2024-03-22T04:14:41;12.60;;;6.90;;
14799;SDS011;7491;57.750;11.970;2024-03-22T04:17:06;18.77;;;9.48;;
14799;SDS011;7491;57.750;11.970;2024-03-22T04:19:33;14.13;;;8.57;;
14799;SDS011;7491;57.750;11.970;2024-03-22T04:21:59;15.68;;;7.07;;
14799;SDS011;7491;57.750;11.970;2024-03-22T04:24:27;16.67;;;8.23;;
14799;SDS011;7491;57.750;11.970;2024-03-22T04:26:53;19.60;;;8.40;;
14799;SDS011;7491;57.750;11.970;2024-03-22T04:29:19;15.88;;;7.88;;
14799;SDS011;7491;57.750;11.970;2024-03-22T04:31:45;15.60;;;9.02;;
14799;SDS011;7491;57.750;11.970;2024-03-22T04:34:12;12.95;;;7.78;;
14799;SDS011;7491;57.750;11.970;2024-03-22T04:36:37;21.20;;;9.20;;
14799;SDS011;7491;57.750;11.970;2024-03-22T04:39:04;14.75;;;8.68;;
14799;SDS011;7491;57.750;11.970;2024-03-22T04:41:32;24.70;;;10.65;;
14799;SDS011;7491;57.750;11.970;2024-03-22T04:43:58;22.77;;;11.38;;
14799;SDS011;7491;57.750;11.970;2024-03-22T04:46:24;22.40;;;9.43;;
14799;SDS011;7491;57.750;11.970;2024-03-22T04:48:50;31.90;;;11.55;;
14799;SDS011;7491;57.750;11.970;2024-03-22T04:51:17;21.30;;;10.05;;
14799;SDS011;7491;57.750;11.970;2024-03-22T04:53:42;21.13;;;11.05;;
14799;SDS011;7491;57.750;11.970;2024-03-22T04:56:09;25.38;;;11.85;;
14799;SDS011;7491;57.750;11.970;2024-03-22T04:58:37;27.53;;;14.73;;
14799;SDS011;7491;57.750;11.970;2024-03-22T05:01:04;27.73;;;13.05;;
14799;SDS011;7491;57.750;11.970;2024-03-22T05:03:29;21.67;;;11.20;;
14799;SDS011;7491;57.750;11.970;2024-03-22T05:05:56;26.70;;;12.00;;
14799;SDS011;7491;57.750;11.970;2024-03-22T05:08:22;30.05;;;13.10;;
14799;SDS011;7491;57.750;11.970;2024-03-22T05:10:49;32.83;;;14.63;;
14799;SDS011;7491;57.750;11.970;2024-03-22T05:13:15;35.17;;;14.70;;
14799;SDS011;7491;57.750;11.970;2024-03-22T05:15:43;29.48;;;12.40;;
14799;SDS011;7491;57.750;11.970;2024-03-22T05:18:09;41.15;;;16.30;;
14799;SDS011;7491;57.750;11.970;2024-03-22T05:20:36;38.75;;;14.18;;
14799;SDS011;7491;57.750;11.970;2024-03-22T05:23:02;38.20;;;13.88;;
14799;SDS011;7491;57.750;11.970;2024-03-22T05:25:28;30.77;;;11.82;;
14799;SDS011;7491;57.750;11.970;2024-03-22T05:27:54;31.00;;;12.73;;
14799;SDS011;7491;57.750;11.970;2024-03-22T05:30:21;40.03;;;13.48;;
14799;SDS011;7491;57.750;11.970;2024-03-22T05:32:48;44.65;;;13.77;;
14799;SDS011;7491;57.750;11.970;2024-03-22T05:35:15;35.42;;;13.15;;
14799;SDS011;7491;57.750;11.970;2024-03-22T05:37:41;68.07;;;19.42;;
14799;SDS011;7491;57.750;11.970;2024-03-22T05:40:08;38.83;;;15.35;;
14799;SDS011;7491;57.750;11.970;2024-03-22T05:42:35;46.40;;;17.13;;
14799;SDS011;7491;57.750;11.970;2024-03-22T05:45:01;53.65;;;18.00;;
14799;SDS011;7491;57.750;11.970;2024-03-22T05:47:28;31.45;;;13.57;;
14799;SDS011;7491;57.750;11.970;2024-03-22T05:49:57;40.67;;;16.00;;
14799;SDS011;7491;57.750;11.970;2024-03-22T05:52:23;49.78;;;16.15;;
14799;SDS011;7491;57.750;11.970;2024-03-22T05:54:50;52.80;;;17.33;;
14799;SDS011;7491;57.750;11.970;2024-03-22T05:57:16;57.03;;;16.88;;
14799;SDS011;7491;57.750;11.970;2024-03-22T05:59:43;42.47;;;16.75;;
14799;SDS011;7491;57.750;11.970;2024-03-22T06:02:09;38.78;;;15.85;;
14799;SDS011;7491;57.750;11.970;2024-03-22T06:04:36;67.43;;;19.08;;
14799;SDS011;7491;57.750;11.970;2024-03-22T06:07:04;50.13;;;18.58;;
14799;SDS011;7491;57.750;11.970;2024-03-22T06:09:31;87.40;;;21.25;;
14799;SDS011;7491;57.750;11.970;2024-03-22T06:12:02;69.57;;;17.85;;
14799;SDS011;7491;57.750;11.970;2024-03-22T06:14:33;45.67;;;17.48;;
14799;SDS011;7491;57.750;11.970;2024-03-22T06:16:59;69.78;;;22.17;;
14799;SDS011;7491;57.750;11.970;2024-03-22T06:19:29;74.97;;;21.58;;
14799;SDS011;7491;57.750;11.970;2024-03-22T06:21:55;53.60;;;17.52;;
14799;SDS011;7491;57.750;11.970;2024-03-22T06:24:25;75.55;;;20.67;;
14799;SDS011;7491;57.750;11.970;2024-03-22T06:26:52;68.15;;;23.02;;
14799;SDS011;7491;57.750;11.970;2024-03-22T06:29:19;73.93;;;22.95;;
14799;SDS011;7491;57.750;11.970;2024-03-22T06:31:45;79.57;;;25.35;;
14799;SDS011;7491;57.750;11.970;2024-03-22T06:34:12;71.07;;;23.00;;
14799;SDS011;7491;57.750;11.970;2024-03-22T06:36:38;62.03;;;20.77;;
14799;SDS011;7491;57.750;11.970;2024-03-22T06:39:05;88.65;;;25.35;;
14799;SDS011;7491;57.750;11.970;2024-03-22T06:41:38;61.90;;;19.92;;
14799;SDS011;7491;57.750;11.970;2024-03-22T06:44:08;85.38;;;22.33;;
14799;SDS011;7491;57.750;11.970;2024-03-22T06:46:42;84.25;;;23.73;;
14799;SDS011;7491;57.750;11.970;2024-03-22T06:49:12;69.20;;;22.77;;
14799;SDS011;7491;57.750;11.970;2024-03-22T06:51:48;90.35;;;26.90;;
14799;SDS011;7491;57.750;11.970;2024-03-22T06:54:17;61.75;;;22.23;;
14799;SDS011;7491;57.750;11.970;2024-03-22T06:56:50;61.72;;;22.13;;
14799;SDS011;7491;57.750;11.970;2024-03-22T06:59:18;38.88;;;14.38;;
14799;SDS011;7491;57.750;11.970;2024-03-22T07:01:46;76.10;;;20.80;;
14799;SDS011;7491;57.750;11.970;2024-03-22T07:04:13;79.88;;;30.67;;
14799;SDS011;7491;57.750;11.970;2024-03-22T07:06:42;89.18;;;25.60;;
14799;SDS011;7491;57.750;11.970;2024-03-22T07:09:09;40.65;;;13.45;;
14799;SDS011;7491;57.750;11.970;2024-03-22T07:11:45;68.75;;;25.48;;
14799;SDS011;7491;57.750;11.970;2024-03-22T07:14:14;74.38;;;23.23;;
14799;SDS011;7491;57.750;11.970;2024-03-22T07:16:43;59.75;;;18.70;;
14799;SDS011;7491;57.750;11.970;2024-03-22T07:19:11;65.70;;;20.20;;
14799;SDS011;7491;57.750;11.970;2024-03-22T07:21:46;65.53;;;22.38;;
14799;SDS011;7491;57.750;11.970;2024-03-22T07:24:22;60.95;;;18.67;;
14799;SDS011;7491;57.750;11.970;2024-03-22T07:26:49;49.53;;;18.08;;
14799;SDS011;7491;57.750;11.970;2024-03-22T07:29:17;58.85;;;20.05;;
14799;SDS011;7491;57.750;11.970;2024-03-22T07:31:43;54.42;;;18.45;;
14799;SDS011;7491;57.750;11.970;2024-03-22T07:34:12;59.60;;;21.25;;
14799;SDS011;7491;57.750;11.970;2024-03-22T07:36:41;60.75;;;18.55;;
14799;SDS011;7491;57.750;11.970;2024-03-22T07:39:08;59.92;;;17.42;;
14799;SDS011;7491;57.750;11.970;2024-03-22T07:41:34;56.90;;;19.67;;
14799;SDS011;7491;57.750;11.970;2024-03-22T07:44:01;74.68;;;23.77;;
14799;SDS011;7491;57.750;11.970;2024-03-22T07:46:29;48.67;;;18.33;;
14799;SDS011;7491;57.750;11.970;2024-03-22T07:48:59;57.95;;;18.48;;
14799;SDS011;7491;57.750;11.970;2024-03-22T07:51:36;68.07;;;19.52;;
14799;SDS011;7491;57.750;11.970;2024-03-22T07:54:03;53.03;;;17.75;;
14799;SDS011;7491;57.750;11.970;2024-03-22T07:56:30;68.32;;;17.95;;
14799;SDS011;7491;57.750;11.970;2024-03-22T07:59:05;65.90;;;20.63;;
14799;SDS011;7491;57.750;11.970;2024-03-22T08:01:35;61.22;;;20.33;;
14799;SDS011;7491;57.750;11.970;2024-03-22T08:04:02;56.72;;;21.77;;
14799;SDS011;7491;57.750;11.970;2024-03-22T08:06:31;58.92;;;19.63;;
14799;SDS011;7491;57.750;11.970;2024-03-22T08:08:58;88.45;;;24.15;;
14799;SDS011;7491;57.750;11.970;2024-03-22T08:11:24;57.40;;;25.05;;
14799;SDS011;7491;57.750;11.970;2024-03-22T08:13:52;58.83;;;17.90;;
14799;SDS011;7491;57.750;11.970;2024-03-22T08:16:27;55.20;;;22.38;;
14799;SDS011;7491;57.750;11.970;2024-03-22T08:19:04;50.00;;;18.15;;
14799;SDS011;7491;57.750;11.970;2024-03-22T08:21:47;65.78;;;18.05;;
14799;SDS011;7491;57.750;11.970;2024-03-22T08:24:14;64.47;;;16.95;;
14799;SDS011;7491;57.750;11.970;2024-03-22T08:26:40;55.38;;;16.23;;
14799;SDS011;7491;57.750;11.970;2024-03-22T08:29:10;44.60;;;19.02;;
14799;SDS011;7491;57.750;11.970;2024-03-22T08:31:36;59.30;;;19.40;;
14799;SDS011;7491;57.750;11.970;2024-03-22T08:34:05;68.93;;;25.33;;
14799;SDS011;7491;57.750;11.970;2024-03-22T08:36:31;52.03;;;19.48;;
14799;SDS011;7491;57.750;11.970;2024-03-22T08:38:57;64.63;;;23.98;;
14799;SDS011;7491;57.750;11.970;2024-03-22T08:41:23;60.75;;;22.48;;
14799;SDS011;7491;57.750;11.970;2024-03-22T08:43:50;68.22;;;20.23;;
14799;SDS011;7491;57.750;11.970;2024-03-22T08:46:16;60.05;;;24.48;;
14799;SDS011;7491;57.750;11.970;2024-03-22T08:48:42;57.38;;;19.90;;
14799;SDS011;7491;57.750;11.970;2024-03-22T08:51:09;53.78;;;18.25;;
14799;SDS011;7491;57.750;11.970;2024-03-22T08:53:36;44.38;;;19.05;;
14799;SDS011;7491;57.750;11.970;2024-03-22T08:56:02;67.20;;;18.20;;
14799;SDS011;7491;57.750;11.970;2024-03-22T08:58:29;54.15;;;17.27;;
14799;SDS011;7491;57.750;11.970;2024-03-22T09:00:55;50.88;;;19.08;;
14799;SDS011;7491;57.750;11.970;2024-03-22T09:03:22;60.50;;;16.67;;
14799;SDS011;7491;57.750;11.970;2024-03-22T09:05:51;59.97;;;18.88;;
14799;SDS011;7491;57.750;11.970;2024-03-22T09:08:19;55.05;;;20.48;;
14799;SDS011;7491;57.750;11.970;2024-03-22T09:10:47;62.28;;;18.70;;
14799;SDS011;7491;57.750;11.970;2024-03-22T09:13:13;71.03;;;20.48;;
14799;SDS011;7491;57.750;11.970;2024-03-22T09:15:40;80.60;;;21.17;;
14799;SDS011;7491;57.750;11.970;2024-03-22T09:18:06;70.65;;;21.45;;
14799;SDS011;7491;57.750;11.970;2024-03-22T09:20:33;69.75;;;18.35;;
14799;SDS011;7491;57.750;11.970;2024-03-22T09:22:59;77.53;;;18.30;;
14799;SDS011;7491;57.750;11.970;2024-03-22T09:25:29;90.75;;;19.90;;
14799;SDS011;7491;57.750;11.970;2024-03-22T09:27:58;93.55;;;21.38;;
14799;SDS011;7491;57.750;11.970;2024-03-22T09:30:27;89.10;;;22.20;;
14799;SDS011;7491;57.750;11.970;2024-03-22T09:32:54;103.80;;;25.88;;
14799;SDS011;7491;57.750;11.970;2024-03-22T09:35:21;100.95;;;20.90;;
14799;SDS011;7491;57.750;11.970;2024-03-22T09:38:05;84.25;;;17.92;;
14799;SDS011;7491;57.750;11.970;2024-03-22T09:40:34;103.18;;;20.15;;
14799;SDS011;7491;57.750;11.970;2024-03-22T09:43:01;86.88;;;17.60;;
14799;SDS011;7491;57.750;11.970;2024-03-22T09:45:29;77.45;;;18.65;;
14799;SDS011;7491;57.750;11.970;2024-03-22T09:47:56;83.53;;;18.67;;
14799;SDS011;7491;57.750;11.970;2024-03-22T09:50:24;78.22;;;17.25;;
14799;SDS011;7491;57.750;11.970;2024-03-22T09:52:51;98.85;;;17.70;;
14799;SDS011;7491;57.750;11.970;2024-03-22T09:55:19;49.95;;;11.05;;
14799;SDS011;7491;57.750;11.970;2024-03-22T09:57:49;81.93;;;15.98;;
14799;SDS011;7491;57.750;11.970;2024-03-22T10:00:21;79.80;;;14.48;;
14799;SDS011;7491;57.750;11.970;2024-03-22T10:02:56;77.40;;;16.60;;
14799;SDS011;7491;57.750;11.970;2024-03-22T10:05:30;75.40;;;16.33;;
14799;SDS011;7491;57.750;11.970;2024-03-22T10:07:59;82.65;;;15.73;;
14799;SDS011;7491;57.750;11.970;2024-03-22T10:10:30;75.40;;;16.95;;
14799;SDS011;7491;57.750;11.970;2024-03-22T10:13:02;64.15;;;15.65;;
14799;SDS011;7491;57.750;11.970;2024-03-22T10:15:33;72.38;;;13.63;;
14799;SDS011;7491;57.750;11.970;2024-03-22T10:18:00;69.80;;;13.57;;
14799;SDS011;7491;57.750;11.970;2024-03-22T10:20:27;82.72;;;15.70;;
14799;SDS011;7491;57.750;11.970;2024-03-22T10:22:55;83.03;;;15.88;;
14799;SDS011;7491;57.750;11.970;2024-03-22T10:25:26;75.20;;;14.65;;
14799;SDS011;7491;57.750;11.970;2024-03-22T10:27:53;61.40;;;14.18;;
14799;SDS011;7491;57.750;11.970;2024-03-22T10:30:22;74.57;;;14.55;;
14799;SDS011;7491;57.750;11.970;2024-03-22T10:32:50;63.78;;;13.40;;
14799;SDS011;7491;57.750;11.970;2024-03-22T10:35:20;72.72;;;14.75;;
14799;SDS011;7491;57.750;11.970;2024-03-22T10:37:47;70.78;;;12.75;;
14799;SDS011;7491;57.750;11.970;2024-03-22T10:40:15;75.72;;;12.18;;
14799;SDS011;7491;57.750;11.970;2024-03-22T10:42:52;68.95;;;14.32;;
14799;SDS011;7491;57.750;11.970;2024-03-22T10:45:19;60.15;;;12.45;;
14799;SDS011;7491;57.750;11.970;2024-03-22T10:47:48;66.40;;;14.35;;
14799;SDS011;7491;57.750;11.970;2024-03-22T10:50:19;69.82;;;15.57;;
14799;SDS011;7491;57.750;11.970;2024-03-22T10:52:48;72.40;;;15.63;;
14799;SDS011;7491;57.750;11.970;2024-03-22T10:55:20;72.72;;;14.35;;
14799;SDS011;7491;57.750;11.970;2024-03-22T10:58:04;67.60;;;12.50;;
14799;SDS011;7491;57.750;11.970;2024-03-22T11:00:34;56.00;;;12.63;;
14799;SDS011;7491;57.750;11.970;2024-03-22T11:03:03;53.33;;;12.05;;
14799;SDS011;7491;57.750;11.970;2024-03-22T11:05:31;60.92;;;12.05;;
14799;SDS011;7491;57.750;11.970;2024-03-22T11:08:00;66.32;;;11.25;;
14799;SDS011;7491;57.750;11.970;2024-03-22T11:10:29;64.97;;;10.57;;
14799;SDS011;7491;57.750;11.970;2024-03-22T11:12:55;59.83;;;12.23;;
14799;SDS011;7491;57.750;11.970;2024-03-22T11:15:28;46.40;;;10.40;;
14799;SDS011;7491;57.750;11.970;2024-03-22T11:17:54;60.55;;;10.55;;
14799;SDS011;7491;57.750;11.970;2024-03-22T11:20:22;65.60;;;11.38;;
14799;SDS011;7491;57.750;11.970;2024-03-22T11:22:48;59.92;;;10.85;;
14799;SDS011;7491;57.750;11.970;2024-03-22T11:25:27;57.47;;;11.98;;
14799;SDS011;7491;57.750;11.970;2024-03-22T11:27:54;58.60;;;10.77;;
14799;SDS011;7491;57.750;11.970;2024-03-22T11:30:21;48.65;;;9.80;;
14799;SDS011;7491;57.750;11.970;2024-03-22T11:32:49;56.58;;;10.25;;
14799;SDS011;7491;57.750;11.970;2024-03-22T11:35:16;63.17;;;11.57;;
14799;SDS011;7491;57.750;11.970;2024-03-22T11:37:43;58.63;;;11.10;;
14799;SDS011;7491;57.750;11.970;2024-03-22T11:40:10;53.00;;;9.50;;
14799;SDS011;7491;57.750;11.970;2024-03-22T11:42:37;48.65;;;7.43;;
14799;SDS011;7491;57.750;11.970;2024-03-22T11:45:06;56.53;;;10.18;;
14799;SDS011;7491;57.750;11.970;2024-03-22T11:47:34;46.85;;;8.73;;
14799;SDS011;7491;57.750;11.970;2024-03-22T11:50:01;54.33;;;11.68;;
14799;SDS011;7491;57.750;11.970;2024-03-22T11:52:27;46.80;;;8.27;;
14799;SDS011;7491;57.750;11.970;2024-03-22T11:54:55;55.03;;;10.32;;
14799;SDS011;7491;57.750;11.970;2024-03-22T11:57:22;56.28;;;11.35;;
14799;SDS011;7491;57.750;11.970;2024-03-22T11:59:50;47.13;;;9.35;;
14799;SDS011;7491;57.750;11.970;2024-03-22T12:02:16;50.22;;;10.30;;
14799;SDS011;7491;57.750;11.970;2024-03-22T12:04:43;52.83;;;9.52;;
14799;SDS011;7491;57.750;11.970;2024-03-22T12:07:12;55.30;;;11.02;;
14799;SDS011;7491;57.750;11.970;2024-03-22T12:09:39;48.80;;;9.30;;
14799;SDS011;7491;57.750;11.970;2024-03-22T12:12:07;50.80;;;10.00;;
14799;SDS011;7491;57.750;11.970;2024-03-22T12:14:34;47.40;;;9.93;;
14799;SDS011;7491;57.750;11.970;2024-03-22T12:17:01;51.88;;;9.30;;
14799;SDS011;7491;57.750;11.970;2024-03-22T12:19:27;45.85;;;10.75;;
14799;SDS011;7491;57.750;11.970;2024-03-22T12:21:54;49.72;;;9.15;;
14799;SDS011;7491;57.750;11.970;2024-03-22T12:24:19;38.05;;;7.72;;
14799;SDS011;7491;57.750;11.970;2024-03-22T12:26:47;46.47;;;10.55;;
14799;SDS011;7491;57.750;11.970;2024-03-22T12:29:14;48.40;;;10.27;;
14799;SDS011;7491;57.750;11.970;2024-03-22T12:31:41;46.83;;;8.07;;
14799;SDS011;7491;57.750;11.970;2024-03-22T12:34:07;47.40;;;10.38;;
14799;SDS011;7491;57.750;11.970;2024-03-22T12:36:34;43.38;;;8.05;;
14799;SDS011;7491;57.750;11.970;2024-03-22T12:39:00;48.35;;;10.38;;
14799;SDS011;7491;57.750;11.970;2024-03-22T12:41:27;50.78;;;10.50;;
14799;SDS011;7491;57.750;11.970;2024-03-22T12:43:54;58.50;;;10.63;;
14799;SDS011;7491;57.750;11.970;2024-03-22T12:46:22;59.28;;;9.40;;
14799;SDS011;7491;57.750;11.970;2024-03-22T12:48:47;56.65;;;9.70;;
14799;SDS011;7491;57.750;11.970;2024-03-22T12:51:14;48.75;;;8.85;;
14799;SDS011;7491;57.750;11.970;2024-03-22T12:53:40;49.47;;;11.95;;
14799;SDS011;7491;57.750;11.970;2024-03-22T12:56:07;49.42;;;8.93;;
14799;SDS011;7491;57.750;11.970;2024-03-22T12:58:33;49.47;;;9.40;;
14799;SDS011;7491;57.750;11.970;2024-03-22T13:01:00;47.50;;;10.20;;
14799;SDS011;7491;57.750;11.970;2024-03-22T13:03:28;58.05;;;10.32;;
14799;SDS011;7491;57.750;11.970;2024-03-22T13:05:56;44.00;;;9.95;;
14799;SDS011;7491;57.750;11.970;2024-03-22T13:08:21;40.63;;;10.15;;
14799;SDS011;7491;57.750;11.970;2024-03-22T13:10:48;51.58;;;11.52;;
14799;SDS011;7491;57.750;11.970;2024-03-22T13:13:14;61.90;;;10.30;;
14799;SDS011;7491;57.750;11.970;2024-03-22T13:15:41;48.42;;;10.60;;
14799;SDS011;7491;57.750;11.970;2024-03-22T13:18:07;47.72;;;8.57;;
14799;SDS011;7491;57.750;11.970;2024-03-22T13:20:36;53.80;;;11.82;;
14799;SDS011;7491;57.750;11.970;2024-03-22T13:23:03;51.50;;;11.07;;
14799;SDS011;7491;57.750;11.970;2024-03-22T13:25:30;55.03;;;10.30;;
14799;SDS011;7491;57.750;11.970;2024-03-22T13:27:56;47.65;;;10.30;;
14799;SDS011;7491;57.750;11.970;2024-03-22T13:30:23;48.00;;;8.93;;
14799;SDS011;7491;57.750;11.970;2024-03-22T13:32:48;45.95;;;10.93;;
14799;SDS011;7491;57.750;11.970;2024-03-22T13:35:15;51.40;;;11.15;;
14799;SDS011;7491;57.750;11.970;2024-03-22T13:37:42;44.70;;;10.02;;
14799;SDS011;7491;57.750;11.970;2024-03-22T13:40:09;54.55;;;9.93;;
14799;SDS011;7491;57.750;11.970;2024-03-22T13:42:36;55.80;;;11.18;;
14799;SDS011;7491;57.750;11.970;2024-03-22T13:45:03;58.15;;;9.82;;
14799;SDS011;7491;57.750;11.970;2024-03-22T13:47:31;55.67;;;11.05;;
14799;SDS011;7491;57.750;11.970;2024-03-22T13:49:58;56.67;;;10.43;;
14799;SDS011;7491;57.750;11.970;2024-03-22T13:52:24;60.28;;;11.93;;
14799;SDS011;7491;57.750;11.970;2024-03-22T13:54:52;52.92;;;11.10;;
14799;SDS011;7491;57.750;11.970;2024-03-22T13:57:18;53.63;;;10.63;;
14799;SDS011;7491;57.750;11.970;2024-03-22T13:59:54;53.22;;;9.55;;
14799;SDS011;7491;57.750;11.970;2024-03-22T14:02:22;56.95;;;10.80;;
14799;SDS011;7491;57.750;11.970;2024-03-22T14:04:51;49.40;;;11.60;;
14799;SDS011;7491;57.750;11.970;2024-03-22T14:07:29;41.33;;;9.63;;
14799;SDS011;7491;57.750;11.970;2024-03-22T14:10:10;46.22;;;8.07;;
14799;SDS011;7491;57.750;11.970;2024-03-22T14:15:33;49.55;;;9.10;;
14799;SDS011;7491;57.750;11.970;2024-03-22T14:18:11;53.80;;;10.95;;
14799;SDS011;7491;57.750;11.970;2024-03-22T14:21:17;43.45;;;9.75;;
14799;SDS011;7491;57.750;11.970;2024-03-22T14:24:21;43.75;;;8.90;;
14799;SDS011;7491;57.750;11.970;2024-03-22T14:36:58;39.20;;;7.75;;
14799;SDS011;7491;57.750;11.970;2024-03-22T14:40:12;41.05;;;8.18;;
14799;SDS011;7491;57.750;11.970;2024-03-22T14:46:03;41.45;;;9.65;;